sensor_id;sensor_type;location;lat;lon;timestamp;P1;durP1;ratioP1;P2;durP2;ratioP2
56770;SDS011;42641;59.794;17.616;2023-09-12T00:01:18;14.65;;;13.15;;
56770;SDS011;42641;59.794;17.616;2023-09-12T00:03:45;15.07;;;11.98;;
56770;SDS011;42641;59.794;17.616;2023-09-12T00:06:11;14.27;;;12.43;;
56770;SDS011;42641;59.794;17.616;2023-09-12T00:08:37;14.98;;;12.45;;
56770;SDS011;42641;59.794;17.616;2023-09-12T00:11:05;15.30;;;12.38;;
56770;SDS011;42641;59.794;17.616;2023-09-12T00:13:35;14.57;;;11.88;;
56770;SDS011;42641;59.794;17.616;2023-09-12T00:16:02;14.23;;;12.00;;
56770;SDS011;42641;59.794;17.616;2023-09-12T00:18:30;14.20;;;12.70;;
56770;SDS011;42641;59.794;17.616;2023-09-12T00:20:57;18.15;;;12.77;;
56770;SDS011;42641;59.794;17.616;2023-09-12T00:23:26;15.45;;;12.85;;
56770;SDS011;42641;59.794;17.616;2023-09-12T00:25:52;16.13;;;13.50;;
56770;SDS011;42641;59.794;17.616;2023-09-12T00:28:19;17.45;;;12.88;;
56770;SDS011;42641;59.794;17.616;2023-09-12T00:30:46;15.80;;;13.65;;
56770;SDS011;42641;59.794;17.616;2023-09-12T00:33:12;16.30;;;13.00;;
56770;SDS011;42641;59.794;17.616;2023-09-12T00:35:39;16.67;;;13.73;;
56770;SDS011;42641;59.794;17.616;2023-09-12T00:38:05;19.80;;;13.63;;
56770;SDS011;42641;59.794;17.616;2023-09-12T00:40:32;16.88;;;13.48;;
56770;SDS011;42641;59.794;17.616;2023-09-12T00:42:59;15.40;;;13.80;;
56770;SDS011;42641;59.794;17.616;2023-09-12T00:45:25;14.80;;;12.68;;
56770;SDS011;42641;59.794;17.616;2023-09-12T00:47:52;17.48;;;13.65;;
56770;SDS011;42641;59.794;17.616;2023-09-12T00:50:20;18.25;;;14.68;;
56770;SDS011;42641;59.794;17.616;2023-09-12T00:52:48;15.93;;;13.52;;
56770;SDS011;42641;59.794;17.616;2023-09-12T00:55:15;19.17;;;14.57;;
56770;SDS011;42641;59.794;17.616;2023-09-12T00:57:42;19.30;;;15.60;;
56770;SDS011;42641;59.794;17.616;2023-09-12T01:00:11;16.73;;;15.00;;
56770;SDS011;42641;59.794;17.616;2023-09-12T01:02:40;21.33;;;16.20;;
56770;SDS011;42641;59.794;17.616;2023-09-12T01:05:07;21.73;;;17.23;;
56770;SDS011;42641;59.794;17.616;2023-09-12T01:07:35;18.48;;;15.60;;
56770;SDS011;42641;59.794;17.616;2023-09-12T01:10:03;23.52;;;17.92;;
56770;SDS011;42641;59.794;17.616;2023-09-12T01:12:30;22.92;;;17.50;;
56770;SDS011;42641;59.794;17.616;2023-09-12T01:14:57;19.63;;;16.80;;
56770;SDS011;42641;59.794;17.616;2023-09-12T01:17:24;22.73;;;17.33;;
56770;SDS011;42641;59.794;17.616;2023-09-12T01:19:51;25.27;;;17.30;;
56770;SDS011;42641;59.794;17.616;2023-09-12T01:27:31;26.77;;;18.85;;
56770;SDS011;42641;59.794;17.616;2023-09-12T01:30:00;24.10;;;17.83;;
56770;SDS011;42641;59.794;17.616;2023-09-12T01:32:29;20.58;;;17.58;;
56770;SDS011;42641;59.794;17.616;2023-09-12T01:34:58;21.17;;;17.75;;
56770;SDS011;42641;59.794;17.616;2023-09-12T01:37:25;23.63;;;17.23;;
56770;SDS011;42641;59.794;17.616;2023-09-12T01:39:52;19.60;;;16.40;;
56770;SDS011;42641;59.794;17.616;2023-09-12T01:42:19;22.52;;;17.65;;
56770;SDS011;42641;59.794;17.616;2023-09-12T01:44:47;21.75;;;17.08;;
56770;SDS011;42641;59.794;17.616;2023-09-12T01:47:16;19.65;;;17.08;;
56770;SDS011;42641;59.794;17.616;2023-09-12T01:49:46;20.08;;;17.80;;
56770;SDS011;42641;59.794;17.616;2023-09-12T01:52:15;22.33;;;16.90;;
56770;SDS011;42641;59.794;17.616;2023-09-12T01:54:42;23.75;;;17.95;;
56770;SDS011;42641;59.794;17.616;2023-09-12T01:57:10;23.35;;;18.33;;
56770;SDS011;42641;59.794;17.616;2023-09-12T01:59:38;24.40;;;17.52;;
56770;SDS011;42641;59.794;17.616;2023-09-12T02:02:04;19.60;;;16.67;;
56770;SDS011;42641;59.794;17.616;2023-09-12T02:04:31;20.67;;;16.73;;
56770;SDS011;42641;59.794;17.616;2023-09-12T02:06:57;20.33;;;17.55;;
56770;SDS011;42641;59.794;17.616;2023-09-12T02:09:24;21.15;;;17.50;;
56770;SDS011;42641;59.794;17.616;2023-09-12T02:11:50;19.90;;;16.67;;
56770;SDS011;42641;59.794;17.616;2023-09-12T02:14:17;22.60;;;17.92;;
56770;SDS011;42641;59.794;17.616;2023-09-12T02:16:44;23.20;;;17.48;;
56770;SDS011;42641;59.794;17.616;2023-09-12T02:19:11;21.77;;;17.55;;
56770;SDS011;42641;59.794;17.616;2023-09-12T02:21:37;20.40;;;17.35;;
56770;SDS011;42641;59.794;17.616;2023-09-12T02:24:03;20.02;;;16.08;;
56770;SDS011;42641;59.794;17.616;2023-09-12T02:26:30;16.95;;;15.15;;
56770;SDS011;42641;59.794;17.616;2023-09-12T02:29:02;17.52;;;15.68;;
56770;SDS011;42641;59.794;17.616;2023-09-12T02:31:29;20.27;;;16.70;;
56770;SDS011;42641;59.794;17.616;2023-09-12T02:33:56;19.10;;;17.10;;
56770;SDS011;42641;59.794;17.616;2023-09-12T02:36:22;20.30;;;17.60;;
56770;SDS011;42641;59.794;17.616;2023-09-12T02:38:49;17.60;;;15.70;;
56770;SDS011;42641;59.794;17.616;2023-09-12T02:41:15;18.65;;;16.67;;
56770;SDS011;42641;59.794;17.616;2023-09-12T02:43:42;18.15;;;16.30;;
56770;SDS011;42641;59.794;17.616;2023-09-12T02:46:08;18.17;;;14.90;;
56770;SDS011;42641;59.794;17.616;2023-09-12T02:48:35;17.55;;;15.63;;
56770;SDS011;42641;59.794;17.616;2023-09-12T02:51:01;16.58;;;14.73;;
56770;SDS011;42641;59.794;17.616;2023-09-12T02:53:27;16.45;;;14.68;;
56770;SDS011;42641;59.794;17.616;2023-09-12T02:55:54;16.38;;;14.23;;
56770;SDS011;42641;59.794;17.616;2023-09-12T02:58:20;17.60;;;14.10;;
56770;SDS011;42641;59.794;17.616;2023-09-12T03:00:47;16.20;;;14.55;;
56770;SDS011;42641;59.794;17.616;2023-09-12T03:03:16;15.80;;;14.18;;
56770;SDS011;42641;59.794;17.616;2023-09-12T03:05:43;18.40;;;14.82;;
56770;SDS011;42641;59.794;17.616;2023-09-12T03:08:09;19.67;;;14.27;;
56770;SDS011;42641;59.794;17.616;2023-09-12T03:10:36;17.30;;;13.57;;
56770;SDS011;42641;59.794;17.616;2023-09-12T03:13:03;16.83;;;14.45;;
56770;SDS011;42641;59.794;17.616;2023-09-12T03:15:29;16.05;;;14.40;;
56770;SDS011;42641;59.794;17.616;2023-09-12T03:18:01;17.80;;;14.48;;
56770;SDS011;42641;59.794;17.616;2023-09-12T03:20:27;15.93;;;13.77;;
56770;SDS011;42641;59.794;17.616;2023-09-12T03:22:54;15.55;;;13.93;;
56770;SDS011;42641;59.794;17.616;2023-09-12T03:25:20;15.57;;;14.05;;
56770;SDS011;42641;59.794;17.616;2023-09-12T03:27:46;15.90;;;13.75;;
56770;SDS011;42641;59.794;17.616;2023-09-12T03:30:13;17.08;;;13.70;;
56770;SDS011;42641;59.794;17.616;2023-09-12T03:32:39;14.73;;;13.18;;
56770;SDS011;42641;59.794;17.616;2023-09-12T03:35:06;14.63;;;13.20;;
56770;SDS011;42641;59.794;17.616;2023-09-12T03:37:33;16.45;;;14.75;;
56770;SDS011;42641;59.794;17.616;2023-09-12T03:39:59;15.65;;;14.00;;
56770;SDS011;42641;59.794;17.616;2023-09-12T03:42:25;16.80;;;14.30;;
56770;SDS011;42641;59.794;17.616;2023-09-12T03:44:52;17.23;;;13.98;;
56770;SDS011;42641;59.794;17.616;2023-09-12T03:47:18;16.63;;;14.05;;
56770;SDS011;42641;59.794;17.616;2023-09-12T03:49:45;14.18;;;12.75;;
56770;SDS011;42641;59.794;17.616;2023-09-12T03:52:11;16.55;;;12.82;;
56770;SDS011;42641;59.794;17.616;2023-09-12T03:54:37;14.20;;;12.70;;
56770;SDS011;42641;59.794;17.616;2023-09-12T03:57:04;14.88;;;12.32;;
56770;SDS011;42641;59.794;17.616;2023-09-12T03:59:30;14.05;;;12.75;;
56770;SDS011;42641;59.794;17.616;2023-09-12T04:01:57;14.52;;;12.32;;
56770;SDS011;42641;59.794;17.616;2023-09-12T04:04:23;14.68;;;12.32;;
56770;SDS011;42641;59.794;17.616;2023-09-12T04:06:50;14.60;;;13.23;;
56770;SDS011;42641;59.794;17.616;2023-09-12T04:09:17;13.00;;;11.63;;
56770;SDS011;42641;59.794;17.616;2023-09-12T04:11:43;14.60;;;12.85;;
56770;SDS011;42641;59.794;17.616;2023-09-12T04:14:09;13.30;;;11.90;;
56770;SDS011;42641;59.794;17.616;2023-09-12T04:16:36;15.23;;;13.13;;
56770;SDS011;42641;59.794;17.616;2023-09-12T04:19:02;13.45;;;12.13;;
56770;SDS011;42641;59.794;17.616;2023-09-12T04:21:29;14.43;;;12.60;;
56770;SDS011;42641;59.794;17.616;2023-09-12T04:23:55;14.48;;;12.98;;
56770;SDS011;42641;59.794;17.616;2023-09-12T04:26:22;14.90;;;13.13;;
56770;SDS011;42641;59.794;17.616;2023-09-12T04:28:48;12.52;;;11.23;;
56770;SDS011;42641;59.794;17.616;2023-09-12T04:31:16;12.70;;;11.50;;
56770;SDS011;42641;59.794;17.616;2023-09-12T04:33:42;16.23;;;12.32;;
56770;SDS011;42641;59.794;17.616;2023-09-12T04:36:09;12.75;;;11.55;;
56770;SDS011;42641;59.794;17.616;2023-09-12T04:38:36;12.35;;;11.05;;
56770;SDS011;42641;59.794;17.616;2023-09-12T04:41:03;13.18;;;11.57;;
56770;SDS011;42641;59.794;17.616;2023-09-12T04:43:31;13.57;;;12.18;;
56770;SDS011;42641;59.794;17.616;2023-09-12T04:45:58;13.02;;;11.55;;
56770;SDS011;42641;59.794;17.616;2023-09-12T04:48:25;12.10;;;10.73;;
56770;SDS011;42641;59.794;17.616;2023-09-12T04:50:51;12.07;;;10.93;;
56770;SDS011;42641;59.794;17.616;2023-09-12T04:53:18;11.88;;;10.77;;
56770;SDS011;42641;59.794;17.616;2023-09-12T04:55:44;12.65;;;11.35;;
56770;SDS011;42641;59.794;17.616;2023-09-12T04:58:10;12.35;;;11.05;;
56770;SDS011;42641;59.794;17.616;2023-09-12T05:00:40;14.05;;;11.27;;
56770;SDS011;42641;59.794;17.616;2023-09-12T05:03:06;12.75;;;11.18;;
56770;SDS011;42641;59.794;17.616;2023-09-12T05:05:34;11.43;;;10.32;;
56770;SDS011;42641;59.794;17.616;2023-09-12T05:08:02;11.70;;;10.27;;
56770;SDS011;42641;59.794;17.616;2023-09-12T05:10:30;11.82;;;10.45;;
56770;SDS011;42641;59.794;17.616;2023-09-12T05:12:56;11.70;;;10.45;;
56770;SDS011;42641;59.794;17.616;2023-09-12T05:15:23;12.23;;;10.63;;
56770;SDS011;42641;59.794;17.616;2023-09-12T05:17:50;11.75;;;10.65;;
56770;SDS011;42641;59.794;17.616;2023-09-12T05:20:16;12.23;;;11.02;;
56770;SDS011;42641;59.794;17.616;2023-09-12T05:22:42;11.13;;;9.80;;
56770;SDS011;42641;59.794;17.616;2023-09-12T05:25:09;11.82;;;10.15;;
56770;SDS011;42641;59.794;17.616;2023-09-12T05:27:35;10.60;;;9.45;;
56770;SDS011;42641;59.794;17.616;2023-09-12T05:30:02;11.23;;;9.68;;
56770;SDS011;42641;59.794;17.616;2023-09-12T05:32:28;11.23;;;10.13;;
56770;SDS011;42641;59.794;17.616;2023-09-12T05:34:55;10.77;;;9.77;;
56770;SDS011;42641;59.794;17.616;2023-09-12T05:37:21;11.82;;;10.73;;
56770;SDS011;42641;59.794;17.616;2023-09-12T05:39:48;15.43;;;10.82;;
56770;SDS011;42641;59.794;17.616;2023-09-12T05:42:14;10.77;;;9.77;;
56770;SDS011;42641;59.794;17.616;2023-09-12T05:44:47;10.85;;;9.75;;
56770;SDS011;42641;59.794;17.616;2023-09-12T05:47:15;11.38;;;10.27;;
56770;SDS011;42641;59.794;17.616;2023-09-12T05:49:41;11.90;;;10.68;;
56770;SDS011;42641;59.794;17.616;2023-09-12T05:52:08;11.70;;;10.50;;
56770;SDS011;42641;59.794;17.616;2023-09-12T05:54:34;12.50;;;9.93;;
56770;SDS011;42641;59.794;17.616;2023-09-12T05:57:01;12.65;;;9.85;;
56770;SDS011;42641;59.794;17.616;2023-09-12T05:59:28;13.07;;;11.25;;
56770;SDS011;42641;59.794;17.616;2023-09-12T06:01:54;11.50;;;10.23;;
56770;SDS011;42641;59.794;17.616;2023-09-12T06:04:21;13.77;;;10.88;;
56770;SDS011;42641;59.794;17.616;2023-09-12T06:06:47;10.82;;;9.73;;
56770;SDS011;42641;59.794;17.616;2023-09-12T06:09:14;11.50;;;10.30;;
56770;SDS011;42641;59.794;17.616;2023-09-12T06:11:40;10.88;;;9.88;;
56770;SDS011;42641;59.794;17.616;2023-09-12T06:14:06;11.55;;;10.35;;
56770;SDS011;42641;59.794;17.616;2023-09-12T06:16:33;12.35;;;9.88;;
56770;SDS011;42641;59.794;17.616;2023-09-12T06:18:59;10.70;;;9.70;;
56770;SDS011;42641;59.794;17.616;2023-09-12T06:21:25;11.98;;;9.60;;
56770;SDS011;42641;59.794;17.616;2023-09-12T06:24:07;10.07;;;9.13;;
56770;SDS011;42641;59.794;17.616;2023-09-12T06:26:38;9.73;;;8.82;;
56770;SDS011;42641;59.794;17.616;2023-09-12T06:29:05;11.35;;;10.15;;
56770;SDS011;42641;59.794;17.616;2023-09-12T06:31:32;10.57;;;9.60;;
56770;SDS011;42641;59.794;17.616;2023-09-12T06:33:59;10.10;;;9.18;;
56770;SDS011;42641;59.794;17.616;2023-09-12T06:36:26;10.05;;;9.05;;
56770;SDS011;42641;59.794;17.616;2023-09-12T06:38:55;9.88;;;8.98;;
56770;SDS011;42641;59.794;17.616;2023-09-12T06:41:22;9.20;;;8.40;;
56770;SDS011;42641;59.794;17.616;2023-09-12T06:43:48;10.02;;;9.02;;
56770;SDS011;42641;59.794;17.616;2023-09-12T06:46:15;10.70;;;9.30;;
56770;SDS011;42641;59.794;17.616;2023-09-12T06:48:47;9.40;;;8.23;;
56770;SDS011;42641;59.794;17.616;2023-09-12T06:51:14;9.27;;;8.27;;
56770;SDS011;42641;59.794;17.616;2023-09-12T06:53:41;8.02;;;7.32;;
56770;SDS011;42641;59.794;17.616;2023-09-12T06:56:08;9.07;;;8.27;;
56770;SDS011;42641;59.794;17.616;2023-09-12T06:58:34;9.23;;;8.32;;
56770;SDS011;42641;59.794;17.616;2023-09-12T07:01:04;8.90;;;8.00;;
56770;SDS011;42641;59.794;17.616;2023-09-12T07:03:32;8.85;;;7.47;;
56770;SDS011;42641;59.794;17.616;2023-09-12T07:05:59;8.00;;;7.20;;
56770;SDS011;42641;59.794;17.616;2023-09-12T07:08:26;8.20;;;7.50;;
56770;SDS011;42641;59.794;17.616;2023-09-12T07:10:52;8.50;;;7.70;;
56770;SDS011;42641;59.794;17.616;2023-09-12T07:13:23;8.15;;;7.32;;
56770;SDS011;42641;59.794;17.616;2023-09-12T07:15:50;8.27;;;7.55;;
56770;SDS011;42641;59.794;17.616;2023-09-12T07:18:17;8.00;;;7.20;;
56770;SDS011;42641;59.794;17.616;2023-09-12T07:20:44;8.60;;;7.65;;
56770;SDS011;42641;59.794;17.616;2023-09-12T07:23:11;8.65;;;7.75;;
56770;SDS011;42641;59.794;17.616;2023-09-12T07:25:38;8.07;;;7.38;;
56770;SDS011;42641;59.794;17.616;2023-09-12T07:28:06;8.25;;;7.38;;
56770;SDS011;42641;59.794;17.616;2023-09-12T07:30:34;8.18;;;7.28;;
56770;SDS011;42641;59.794;17.616;2023-09-12T07:33:02;8.65;;;7.85;;
56770;SDS011;42641;59.794;17.616;2023-09-12T07:35:30;7.80;;;7.10;;
56770;SDS011;42641;59.794;17.616;2023-09-12T07:37:56;7.47;;;6.80;;
56770;SDS011;42641;59.794;17.616;2023-09-12T07:40:23;7.70;;;6.80;;
56770;SDS011;42641;59.794;17.616;2023-09-12T07:42:49;7.95;;;7.25;;
56770;SDS011;42641;59.794;17.616;2023-09-12T07:45:16;7.40;;;6.70;;
56770;SDS011;42641;59.794;17.616;2023-09-12T07:47:42;7.80;;;7.00;;
56770;SDS011;42641;59.794;17.616;2023-09-12T07:50:08;8.70;;;7.30;;
56770;SDS011;42641;59.794;17.616;2023-09-12T07:52:35;8.32;;;7.13;;
56770;SDS011;42641;59.794;17.616;2023-09-12T07:55:02;7.88;;;7.03;;
56770;SDS011;42641;59.794;17.616;2023-09-12T07:57:29;7.28;;;6.20;;
56770;SDS011;42641;59.794;17.616;2023-09-12T07:59:56;7.13;;;6.50;;
56770;SDS011;42641;59.794;17.616;2023-09-12T08:02:23;6.40;;;5.53;;
56770;SDS011;42641;59.794;17.616;2023-09-12T08:04:49;5.97;;;5.47;;
56770;SDS011;42641;59.794;17.616;2023-09-12T08:07:19;6.88;;;6.28;;
56770;SDS011;42641;59.794;17.616;2023-09-12T08:09:53;6.70;;;6.00;;
56770;SDS011;42641;59.794;17.616;2023-09-12T08:12:21;7.65;;;5.63;;
56770;SDS011;42641;59.794;17.616;2023-09-12T08:14:48;7.55;;;5.47;;
56770;SDS011;42641;59.794;17.616;2023-09-12T08:17:15;5.78;;;5.28;;
56770;SDS011;42641;59.794;17.616;2023-09-12T08:19:41;6.25;;;4.90;;
56770;SDS011;42641;59.794;17.616;2023-09-12T08:22:08;5.03;;;4.60;;
56770;SDS011;42641;59.794;17.616;2023-09-12T08:24:36;5.15;;;4.65;;
56770;SDS011;42641;59.794;17.616;2023-09-12T08:27:03;5.53;;;5.03;;
56770;SDS011;42641;59.794;17.616;2023-09-12T08:29:30;5.55;;;4.97;;
56770;SDS011;42641;59.794;17.616;2023-09-12T08:31:58;6.40;;;5.28;;
56770;SDS011;42641;59.794;17.616;2023-09-12T08:34:25;5.75;;;5.15;;
56770;SDS011;42641;59.794;17.616;2023-09-12T08:36:52;5.57;;;5.07;;
56770;SDS011;42641;59.794;17.616;2023-09-12T08:39:23;4.88;;;4.38;;
56770;SDS011;42641;59.794;17.616;2023-09-12T08:41:51;5.85;;;5.35;;
56770;SDS011;42641;59.794;17.616;2023-09-12T08:44:19;5.63;;;5.13;;
56770;SDS011;42641;59.794;17.616;2023-09-12T08:46:47;6.95;;;4.80;;
56770;SDS011;42641;59.794;17.616;2023-09-12T08:49:14;5.35;;;4.85;;
56770;SDS011;42641;59.794;17.616;2023-09-12T08:51:41;6.55;;;4.70;;
56770;SDS011;42641;59.794;17.616;2023-09-12T08:54:08;5.53;;;4.93;;
56770;SDS011;42641;59.794;17.616;2023-09-12T08:56:39;5.28;;;4.72;;
56770;SDS011;42641;59.794;17.616;2023-09-12T08:59:08;5.38;;;4.78;;
56770;SDS011;42641;59.794;17.616;2023-09-12T09:01:36;4.97;;;4.55;;
56770;SDS011;42641;59.794;17.616;2023-09-12T09:04:03;4.90;;;4.50;;
56770;SDS011;42641;59.794;17.616;2023-09-12T09:06:31;5.50;;;5.00;;
56770;SDS011;42641;59.794;17.616;2023-09-12T09:08:58;7.43;;;4.78;;
56770;SDS011;42641;59.794;17.616;2023-09-12T09:11:26;5.07;;;4.60;;
56770;SDS011;42641;59.794;17.616;2023-09-12T09:13:54;5.53;;;4.82;;
56770;SDS011;42641;59.794;17.616;2023-09-12T09:16:21;5.20;;;4.70;;
56770;SDS011;42641;59.794;17.616;2023-09-12T09:18:49;6.82;;;4.90;;
56770;SDS011;42641;59.794;17.616;2023-09-12T09:21:20;6.15;;;5.00;;
56770;SDS011;42641;59.794;17.616;2023-09-12T09:23:51;5.60;;;5.10;;
56770;SDS011;42641;59.794;17.616;2023-09-12T09:26:19;5.22;;;4.72;;
56770;SDS011;42641;59.794;17.616;2023-09-12T09:28:45;5.05;;;4.60;;
56770;SDS011;42641;59.794;17.616;2023-09-12T09:31:27;6.60;;;5.35;;
56770;SDS011;42641;59.794;17.616;2023-09-12T09:33:54;5.15;;;4.65;;
56770;SDS011;42641;59.794;17.616;2023-09-12T09:36:21;5.40;;;4.90;;
56770;SDS011;42641;59.794;17.616;2023-09-12T09:38:47;5.53;;;4.90;;
56770;SDS011;42641;59.794;17.616;2023-09-12T09:41:14;5.40;;;4.93;;
56770;SDS011;42641;59.794;17.616;2023-09-12T09:43:40;5.90;;;5.25;;
56770;SDS011;42641;59.794;17.616;2023-09-12T09:46:08;8.55;;;5.50;;
56770;SDS011;42641;59.794;17.616;2023-09-12T09:48:42;5.85;;;5.22;;
56770;SDS011;42641;59.794;17.616;2023-09-12T09:51:15;7.70;;;5.50;;
56770;SDS011;42641;59.794;17.616;2023-09-12T09:53:41;5.78;;;5.28;;
56770;SDS011;42641;59.794;17.616;2023-09-12T09:58:41;6.22;;;5.63;;
56770;SDS011;42641;59.794;17.616;2023-09-12T10:01:19;6.53;;;5.97;;
56770;SDS011;42641;59.794;17.616;2023-09-12T10:03:47;7.13;;;6.43;;
56770;SDS011;42641;59.794;17.616;2023-09-12T10:06:15;8.75;;;6.75;;
56770;SDS011;42641;59.794;17.616;2023-09-12T10:08:44;7.03;;;6.15;;
56770;SDS011;42641;59.794;17.616;2023-09-12T10:11:21;6.53;;;5.93;;
56770;SDS011;42641;59.794;17.616;2023-09-12T10:13:52;7.18;;;6.55;;
56770;SDS011;42641;59.794;17.616;2023-09-12T10:16:23;7.13;;;6.43;;
56770;SDS011;42641;59.794;17.616;2023-09-12T10:19:35;7.10;;;6.40;;
56770;SDS011;42641;59.794;17.616;2023-09-12T10:24:18;7.18;;;6.47;;
56770;SDS011;42641;59.794;17.616;2023-09-12T10:26:47;7.68;;;6.88;;
56770;SDS011;42641;59.794;17.616;2023-09-12T10:29:17;9.23;;;7.30;;
56770;SDS011;42641;59.794;17.616;2023-09-12T10:31:44;9.80;;;7.15;;
56770;SDS011;42641;59.794;17.616;2023-09-12T10:34:12;10.50;;;7.68;;
56770;SDS011;42641;59.794;17.616;2023-09-12T10:36:41;7.65;;;6.95;;
56770;SDS011;42641;59.794;17.616;2023-09-12T10:39:09;10.13;;;7.32;;
56770;SDS011;42641;59.794;17.616;2023-09-12T10:41:38;10.00;;;7.55;;
56770;SDS011;42641;59.794;17.616;2023-09-12T10:44:09;9.73;;;7.82;;
56770;SDS011;42641;59.794;17.616;2023-09-12T10:46:40;8.30;;;7.07;;
56770;SDS011;42641;59.794;17.616;2023-09-12T10:49:11;9.18;;;8.23;;
56770;SDS011;42641;59.794;17.616;2023-09-12T10:51:39;9.57;;;8.60;;
56770;SDS011;42641;59.794;17.616;2023-09-12T10:54:07;8.57;;;7.72;;
56770;SDS011;42641;59.794;17.616;2023-09-12T10:56:34;8.70;;;7.90;;
56770;SDS011;42641;59.794;17.616;2023-09-12T11:01:30;9.25;;;8.43;;
56770;SDS011;42641;59.794;17.616;2023-09-12T11:04:45;10.55;;;8.63;;
56770;SDS011;42641;59.794;17.616;2023-09-12T11:06:56;9.50;;;8.63;;
56770;SDS011;42641;59.794;17.616;2023-09-12T11:09:24;10.18;;;8.45;;
56770;SDS011;42641;59.794;17.616;2023-09-12T11:12:33;10.40;;;8.38;;
56770;SDS011;42641;59.794;17.616;2023-09-12T11:15:10;10.18;;;8.95;;
56770;SDS011;42641;59.794;17.616;2023-09-12T11:17:40;10.20;;;9.07;;
56770;SDS011;42641;59.794;17.616;2023-09-12T11:20:07;11.05;;;9.15;;
56770;SDS011;42641;59.794;17.616;2023-09-12T11:22:38;9.23;;;8.30;;
56770;SDS011;42641;59.794;17.616;2023-09-12T11:25:18;9.52;;;8.50;;
56770;SDS011;42641;59.794;17.616;2023-09-12T11:30:19;9.57;;;8.57;;
56770;SDS011;42641;59.794;17.616;2023-09-12T11:32:48;9.35;;;8.45;;
56770;SDS011;42641;59.794;17.616;2023-09-12T11:35:16;10.52;;;8.13;;
56770;SDS011;42641;59.794;17.616;2023-09-12T11:37:48;10.07;;;9.00;;
56770;SDS011;42641;59.794;17.616;2023-09-12T11:40:25;10.68;;;8.88;;
56770;SDS011;42641;59.794;17.616;2023-09-12T11:43:08;9.60;;;8.63;;
56770;SDS011;42641;59.794;17.616;2023-09-12T11:45:45;9.60;;;8.70;;
56770;SDS011;42641;59.794;17.616;2023-09-12T11:48:13;10.52;;;9.50;;
56770;SDS011;42641;59.794;17.616;2023-09-12T11:50:39;10.15;;;9.23;;
56770;SDS011;42641;59.794;17.616;2023-09-12T11:53:08;10.85;;;8.73;;
56770;SDS011;42641;59.794;17.616;2023-09-12T11:55:48;12.02;;;8.98;;
56770;SDS011;42641;59.794;17.616;2023-09-12T11:58:17;13.85;;;10.07;;
56770;SDS011;42641;59.794;17.616;2023-09-12T12:00:45;10.00;;;9.00;;
56770;SDS011;42641;59.794;17.616;2023-09-12T12:03:15;11.38;;;10.27;;
56770;SDS011;42641;59.794;17.616;2023-09-12T12:05:42;11.18;;;9.98;;
56770;SDS011;42641;59.794;17.616;2023-09-12T12:08:12;11.40;;;10.30;;
56770;SDS011;42641;59.794;17.616;2023-09-12T12:10:40;12.45;;;10.90;;
56770;SDS011;42641;59.794;17.616;2023-09-12T12:13:11;11.93;;;10.68;;
56770;SDS011;42641;59.794;17.616;2023-09-12T12:15:38;12.18;;;10.88;;
56770;SDS011;42641;59.794;17.616;2023-09-12T12:18:04;13.07;;;11.10;;
56770;SDS011;42641;59.794;17.616;2023-09-12T12:20:31;13.25;;;11.90;;
56770;SDS011;42641;59.794;17.616;2023-09-12T12:22:57;15.35;;;12.60;;
56770;SDS011;42641;59.794;17.616;2023-09-12T12:25:24;13.75;;;12.40;;
56770;SDS011;42641;59.794;17.616;2023-09-12T12:27:51;14.20;;;12.80;;
56770;SDS011;42641;59.794;17.616;2023-09-12T12:30:17;14.02;;;12.63;;
56770;SDS011;42641;59.794;17.616;2023-09-12T12:32:45;14.68;;;12.30;;
56770;SDS011;42641;59.794;17.616;2023-09-12T12:35:19;13.48;;;11.93;;
56770;SDS011;42641;59.794;17.616;2023-09-12T12:37:50;12.88;;;11.40;;
56770;SDS011;42641;59.794;17.616;2023-09-12T12:40:17;14.00;;;12.38;;
56770;SDS011;42641;59.794;17.616;2023-09-12T12:42:44;14.20;;;12.00;;
56770;SDS011;42641;59.794;17.616;2023-09-12T12:45:17;14.57;;;12.65;;
56770;SDS011;42641;59.794;17.616;2023-09-12T12:47:45;13.73;;;12.15;;
56770;SDS011;42641;59.794;17.616;2023-09-12T12:50:12;14.15;;;12.73;;
56770;SDS011;42641;59.794;17.616;2023-09-12T12:52:40;13.25;;;11.55;;
56770;SDS011;42641;59.794;17.616;2023-09-12T12:55:11;13.55;;;12.15;;
56770;SDS011;42641;59.794;17.616;2023-09-12T12:57:38;13.10;;;11.70;;
56770;SDS011;42641;59.794;17.616;2023-09-12T13:00:07;13.45;;;11.60;;
56770;SDS011;42641;59.794;17.616;2023-09-12T13:02:38;14.77;;;11.55;;
56770;SDS011;42641;59.794;17.616;2023-09-12T13:05:06;13.10;;;11.52;;
56770;SDS011;42641;59.794;17.616;2023-09-12T13:07:44;12.57;;;11.18;;
56770;SDS011;42641;59.794;17.616;2023-09-12T13:10:11;12.82;;;11.52;;
56770;SDS011;42641;59.794;17.616;2023-09-12T13:12:37;12.90;;;11.50;;
56770;SDS011;42641;59.794;17.616;2023-09-12T13:15:04;14.27;;;11.35;;
56770;SDS011;42641;59.794;17.616;2023-09-12T13:17:31;12.77;;;11.35;;
56770;SDS011;42641;59.794;17.616;2023-09-12T13:19:57;14.82;;;11.93;;
56770;SDS011;42641;59.794;17.616;2023-09-12T13:22:24;12.82;;;11.40;;
56770;SDS011;42641;59.794;17.616;2023-09-12T13:24:50;11.75;;;10.63;;
56770;SDS011;42641;59.794;17.616;2023-09-12T13:27:16;11.75;;;10.48;;
56770;SDS011;42641;59.794;17.616;2023-09-12T13:29:43;12.77;;;11.48;;
56770;SDS011;42641;59.794;17.616;2023-09-12T13:32:09;11.95;;;10.75;;
56770;SDS011;42641;59.794;17.616;2023-09-12T13:34:38;11.70;;;10.57;;
56770;SDS011;42641;59.794;17.616;2023-09-12T13:37:04;12.07;;;10.85;;
56770;SDS011;42641;59.794;17.616;2023-09-12T13:39:31;12.40;;;10.80;;
56770;SDS011;42641;59.794;17.616;2023-09-12T13:41:57;16.75;;;11.73;;
56770;SDS011;42641;59.794;17.616;2023-09-12T13:44:25;12.38;;;11.25;;
56770;SDS011;42641;59.794;17.616;2023-09-12T13:46:51;13.07;;;10.68;;
56770;SDS011;42641;59.794;17.616;2023-09-12T13:49:18;11.68;;;9.48;;
56770;SDS011;42641;59.794;17.616;2023-09-12T13:51:45;9.82;;;8.82;;
56770;SDS011;42641;59.794;17.616;2023-09-12T13:54:11;9.95;;;8.27;;
56770;SDS011;42641;59.794;17.616;2023-09-12T13:56:40;8.82;;;7.93;;
56770;SDS011;42641;59.794;17.616;2023-09-12T13:59:07;8.57;;;7.45;;
56770;SDS011;42641;59.794;17.616;2023-09-12T14:01:33;9.20;;;7.30;;
56770;SDS011;42641;59.794;17.616;2023-09-12T14:16:28;8.23;;;6.43;;
56770;SDS011;42641;59.794;17.616;2023-09-12T14:18:54;10.05;;;7.72;;
56770;SDS011;42641;59.794;17.616;2023-09-12T14:21:21;8.10;;;7.30;;
56770;SDS011;42641;59.794;17.616;2023-09-12T14:23:47;7.30;;;6.60;;
56770;SDS011;42641;59.794;17.616;2023-09-12T14:26:14;9.02;;;7.15;;
56770;SDS011;42641;59.794;17.616;2023-09-12T14:28:40;7.38;;;6.68;;
56770;SDS011;42641;59.794;17.616;2023-09-12T14:31:06;8.35;;;7.18;;
56770;SDS011;42641;59.794;17.616;2023-09-12T14:33:39;7.70;;;6.88;;
56770;SDS011;42641;59.794;17.616;2023-09-12T14:36:07;9.63;;;7.30;;
56770;SDS011;42641;59.794;17.616;2023-09-12T14:38:35;8.85;;;7.68;;
56770;SDS011;42641;59.794;17.616;2023-09-12T14:41:02;8.95;;;6.60;;
56770;SDS011;42641;59.794;17.616;2023-09-12T14:43:28;11.30;;;7.65;;
56770;SDS011;42641;59.794;17.616;2023-09-12T14:45:55;8.73;;;6.85;;
56770;SDS011;42641;59.794;17.616;2023-09-12T14:48:21;9.48;;;7.25;;
56770;SDS011;42641;59.794;17.616;2023-09-12T14:50:47;8.05;;;7.20;;